Flight Track Log - Related Links

Times and Time Zones

All times are in EDT time to prevent confusion due to time zone crossing. See the N3746H flight status page for this flight to view local times or setup timezone preferences in your user account.

Time Position Orientation Groundspeed Altitude Reporting Facility
EDT Latitude Longitude Course Direction KTS MPH feet Rate Location/Type
Sun 10:21:16 AM 33.4333 -111.9833 83° East 179 206 2,100  Level Phoenix TRACON
Sun 10:22:40 AM 33.4333 -111.8667 90° East 271 312 4,700 2,154 Climbing Phoenix TRACON
Sun 10:23:00 AM 33.4723 -111.5427 81° East  Level FlightAware Approximate
Sun 10:23:13 AM 33.4411 -111.8183 79° East 274 315 6,300  Level Albuquerque Center
Sun 10:24:00 AM 33.4931 -111.3905 81° East  Level FlightAware Approximate
Sun 10:24:14 AM 33.4550 -111.7228 80° East 290 334 9,400  Level Albuquerque Center
Sun 10:25:00 AM 33.5138 -111.2383 81° East  Level FlightAware Approximate
Sun 10:25:16 AM 33.4694 -111.6228 80° East 311 358 11,200  Level Albuquerque Center
Sun 10:26:00 AM 33.5299 -111.0852 83° East  Level FlightAware Approximate
Sun 10:26:17 AM 33.4850 -111.5083 81° East 347 399 13,700  Level Albuquerque Center
Sun 10:27:18 AM 33.5011 -111.3878 81° East 369 425 15,700 2,049 Climbing Albuquerque Center
Sun 10:28:20 AM 33.5150 -111.2600 83° East 387 445 17,900 2,049 Climbing Albuquerque Center
Sun 10:29:21 AM 33.5306 -111.1278 82° East 402 463 19,900 1,377 Climbing Albuquerque Center
Sun 10:30:22 AM 33.5489 -110.9539 83° East 443 510 20,700 1,171 Climbing Albuquerque Center
Sun 10:31:24 AM 33.5853 -110.8022 74° East 470 541 22,300 1,512 Climbing Albuquerque Center
Sun 10:32:25 AM 33.6336 -110.6550 68° East 478 550 23,800 1,366 Climbing Albuquerque Center
Sun 10:33:27 AM 33.6811 -110.5033 69° East 484 557 25,100 1,220 Climbing Albuquerque Center
Sun 10:34:28 AM 33.7278 -110.3592 69° East 495 570 26,300 1,366 Climbing Albuquerque Center
Sun 10:35:30 AM 33.7881 -110.1706 69° East 504 580 27,900 1,463 Climbing Albuquerque Center
Sun 10:36:31 AM 33.8386 -110.0128 69° East 508 585 29,300 1,366 Climbing Albuquerque Center
Sun 10:37:33 AM 33.8894 -109.8567 69° East 506 582 30,700 1,171 Climbing Albuquerque Center
Sun 10:38:34 AM 33.9386 -109.7008 69° East 503 579 31,700 1,024 Climbing Albuquerque Center
Sun 10:39:36 AM 33.9883 -109.5417 69° East 506 582 32,800 1,161 Climbing Albuquerque Center
Sun 10:40:38 AM 34.0378 -109.3847 69° East 505 581 34,100 1,073 Climbing Albuquerque Center
Sun 10:41:39 AM 34.0853 -109.2303 70° East 499 574 35,000 439 Climbing Albuquerque Center
Sun 10:42:41 AM 34.1436 -109.0453 69° East 496 571 35,000  Level Albuquerque Center
Sun 10:43:42 AM 34.1911 -108.8886 70° East 498 573 35,000  Level Albuquerque Center
Sun 10:44:44 AM 34.2392 -108.7322 70° East 499 574 35,000  Level Albuquerque Center
Sun 10:45:46 AM 34.2864 -108.5753 70° East 501 577 35,000  Level Albuquerque Center
Sun 10:46:47 AM 34.3364 -108.4103 70° East 502 578 35,000  Level Albuquerque Center
Sun 10:47:49 AM 34.3844 -108.2519 70° East 501 577 35,000  Level Albuquerque Center
Sun 10:48:50 AM 34.4169 -108.0883 76° East 505 581 35,000  Level Albuquerque Center
Sun 10:49:53 AM 34.4158 -107.9183 90° East 507 583 35,000  Level Albuquerque Center
Sun 10:51:00 AM 34.4119 -107.7408 91° East  Level FlightAware Approximate
Sun 10:51:55 AM 34.4111 -107.5406 91° East 511 588 35,000  Level Albuquerque Center
Sun 10:52:57 AM 34.4092 -107.3681 91° East 513 590 35,000  Level Albuquerque Center
Sun 10:53:59 AM 34.4050 -107.1956 92° East 515 593 35,000  Level Albuquerque Center
Sun 10:55:00 AM 34.4008 -107.0242 92° East 514 592 35,000  Level Albuquerque Center
Sun 10:56:02 AM 34.3969 -106.8539 92° East 512 589 35,000  Level Albuquerque Center
Sun 10:57:03 AM 34.4033 -106.6853 87° East 507 583 35,000  Level Albuquerque Center
Sun 10:58:05 AM 34.4758 -106.5089 63° Northeast 491 565 35,000  Level Albuquerque Center
Sun 10:59:07 AM 34.5406 -106.3642 61° Northeast 492 566 35,000  Level Albuquerque Center
Sun 11:00:08 AM 34.6028 -106.2203 62° Northeast 488 562 35,000  Level Albuquerque Center
Sun 11:01:10 AM 34.6650 -106.0778 62° Northeast 487 560 35,000  Level Albuquerque Center
Sun 11:02:12 AM 34.7406 -105.9061 62° Northeast 489 563 35,000  Level Albuquerque Center
Sun 11:03:13 AM 34.8033 -105.7564 63° Northeast 490 564 35,000  Level Albuquerque Center
Sun 11:04:15 AM 34.8708 -105.6072 61° Northeast 495 570 35,000  Level Albuquerque Center
Sun 11:05:16 AM 34.9336 -105.4575 63° Northeast 494 568 35,000  Level Albuquerque Center
Sun 11:06:18 AM 34.9972 -105.3086 62° Northeast 491 565 35,000  Level Albuquerque Center
Sun 11:07:20 AM 35.0603 -105.1597 63° Northeast 491 565 35,000  Level Albuquerque Center
Sun 11:08:22 AM 35.1194 -105.0053 65° Northeast 498 573 35,000  Level Albuquerque Center
Sun 11:09:23 AM 35.1542 -104.8367 76° East 505 581 35,000  Level Albuquerque Center
Sun 11:10:25 AM 35.1883 -104.6675 76° East 507 583 35,000  Level Albuquerque Center
Sun 11:11:27 AM 35.2236 -104.5014 75° East 514 592 35,000  Level Albuquerque Center
Sun 11:12:29 AM 35.2633 -104.2975 77° East 514 592 35,000  Level Albuquerque Center
Sun 11:13:30 AM 35.2908 -104.1625 76° East 513 590 35,000  Level Albuquerque Center
Sun 11:14:32 AM 35.3308 -103.9594 76° East 513 590 35,000  Level Albuquerque Center
Sun 11:15:34 AM 35.3622 -103.7981 77° East 514 592 35,000  Level Albuquerque Center
Sun 11:16:36 AM 35.4008 -103.5997 77° East 510 587 35,000  Level Albuquerque Center
Sun 11:17:38 AM 35.4342 -103.4283 77° East 511 588 35,000  Level Albuquerque Center
Sun 11:18:39 AM 35.4669 -103.2556 77° East 515 593 35,000  Level Albuquerque Center
Sun 11:19:41 AM 35.4997 -103.0833 77° East 515 593 35,000  Level Albuquerque Center
Sun 11:20:43 AM 35.5319 -102.9086 77° East 518 596 35,000  Level Albuquerque Center
Sun 11:21:45 AM 35.5661 -102.7294 77° East 520 598 35,000  Level Albuquerque Center
Sun 11:22:47 AM 35.5969 -102.5569 78° East 519 597 35,000  Level Albuquerque Center
Sun 11:23:48 AM 35.6289 -102.3836 77° East 519 597 35,000  Level Albuquerque Center
Sun 11:24:50 AM 35.6603 -102.2094 77° East 520 598 35,000  Level Albuquerque Center
Sun 11:25:52 AM 35.6922 -102.0353 77° East 520 598 35,000  Level Albuquerque Center
Sun 11:26:54 AM 35.7239 -101.8606 77° East 520 598 35,000  Level Albuquerque Center
Sun 11:27:56 AM 35.7606 -101.6506 78° East 520 598 35,000  Level Albuquerque Center
Sun 11:28:57 AM 35.7917 -101.4739 78° East 523 602 35,000  Level Albuquerque Center
Sun 11:29:59 AM 35.8361 -101.3058 72° East 519 597 35,000  Level Albuquerque Center
Sun 11:31:01 AM 35.8936 -101.1489 66° East 503 579 35,000  Level Albuquerque Center
Sun 11:32:03 AM 35.9514 -100.9900 66° East 505 581 35,000  Level Albuquerque Center
Sun 11:33:04 AM 36.0067 -100.8353 66° East 504 580 35,000  Level Albuquerque Center
Sun 11:34:06 AM 36.0628 -100.6767 66° East 502 578 35,000  Level Albuquerque Center
Sun 11:35:08 AM 36.1194 -100.5194 66° East 501 577 35,000  Level Albuquerque Center
Sun 11:36:10 AM 36.1867 -100.3308 66° East 498 573 35,000  Level Albuquerque Center
Sun 11:37:11 AM 36.2406 -100.1742 67° East 496 571 35,000  Level Albuquerque Center
Sun 11:38:13 AM 36.2964 -100.0167 66° East 495 570 35,000  Level Albuquerque Center
Sun 11:39:15 AM 36.3508 -99.8603 67° East 493 567 35,000  Level Albuquerque Center
Sun 11:40:29 AM 36.4225 -99.6775 64° Northeast 489 563 35,000  Level Kansas City Center
Sun 11:41:30 AM 36.4808 -99.5258 64° Northeast 485 558 35,000  Level Kansas City Center
Sun 11:42:30 AM 36.5386 -99.3756 64° Northeast 480 552 35,000  Level Kansas City Center
Sun 11:43:34 AM 36.5961 -99.2242 65° Northeast 479 551 35,000  Level Kansas City Center
Sun 11:44:35 AM 36.6531 -99.0725 65° Northeast 479 551 35,000  Level Kansas City Center
Sun 11:45:37 AM 36.7111 -98.9167 65° Northeast 487 560 35,000  Level Kansas City Center
Sun 11:46:37 AM 36.7683 -98.7692 64° Northeast 476 548 35,000  Level Kansas City Center
Sun 11:47:38 AM 36.8256 -98.6206 64° Northeast 473 544 35,000  Level Kansas City Center
Sun 11:48:42 AM 36.8928 -98.4400 65° Northeast 475 547 35,000  Level Kansas City Center
Sun 11:49:43 AM 36.9414 -98.3128 64° Northeast 474 545 35,000  Level Kansas City Center
Sun 11:50:45 AM 36.9961 -98.1625 65° Northeast 476 548 35,000  Level Kansas City Center
Sun 11:51:46 AM 37.0625 -97.9825 65° Northeast 477 549 35,000  Level Kansas City Center
Sun 11:52:48 AM 37.1172 -97.8319 65° Northeast 477 549 35,000  Level Kansas City Center
Sun 11:53:49 AM 37.1731 -97.6803 65° Northeast 481 554 35,000  Level Kansas City Center
Sun 11:54:52 AM 37.2269 -97.5267 66° East 482 555 35,000  Level Kansas City Center
Sun 11:55:54 AM 37.2839 -97.3731 65° Northeast 486 559 35,000  Level Kansas City Center
Sun 11:56:56 AM 37.3361 -97.2158 67° East 490 564 35,000  Level Kansas City Center
Sun 11:57:57 AM 37.3900 -97.0211 71° East 493 567 35,000  Level Kansas City Center
Sun 11:58:59 AM 37.4358 -96.8597 70° East 494 568 35,000  Level Kansas City Center
Sun 11:59:59 AM 37.4803 -96.6989 71° East 490 564 35,000  Level Kansas City Center
Sun 12:01:01 PM 37.5244 -96.5356 71° East 492 566 35,000  Level Kansas City Center
Sun 12:02:05 PM 37.5733 -96.3603 71° East 489 563 35,000  Level Kansas City Center
Sun 12:03:06 PM 37.6183 -96.1972 71° East 489 563 35,000  Level Kansas City Center
Sun 12:04:07 PM 37.6617 -96.0356 71° East 487 560 35,000  Level Kansas City Center
Sun 12:05:08 PM 37.7058 -95.8742 71° East 484 557 35,000  Level Kansas City Center
Sun 12:06:11 PM 37.7489 -95.7119 71° East 484 557 35,000  Level Kansas City Center
Sun 12:07:11 PM 37.7928 -95.5503 71° East 485 558 35,000  Level Kansas City Center
Sun 12:08:15 PM 37.8353 -95.3894 71° East 483 556 35,000  Level Kansas City Center
Sun 12:09:17 PM 37.8858 -95.1958 72° East 482 555 35,000  Level Kansas City Center
Sun 12:10:18 PM 37.9247 -95.0500 71° East 479 551 35,000  Level Kansas City Center
Sun 12:11:19 PM 37.9717 -94.8678 72° East 484 557 35,000  Level Kansas City Center
Sun 12:12:22 PM 38.0114 -94.7122 72° East 486 559 35,000  Level Kansas City Center
Sun 12:13:22 PM 38.0586 -94.5306 72° East 487 560 35,000 98 Level Kansas City Center
Sun 12:14:25 PM 38.0981 -94.3744 72° East 487 560 35,200 768 Climbing Kansas City Center
Sun 12:15:27 PM 38.1439 -94.1950 72° East 483 556 36,600 878 Climbing Kansas City Center
Sun 12:16:28 PM 38.1808 -94.0478 72° East 474 545 37,000 192 Climbing Kansas City Center
Sun 12:17:32 PM 38.2225 -93.8844 72° East 479 551 37,000  Level Kansas City Center
Sun 12:18:33 PM 38.2625 -93.7186 73° East 486 559 37,000  Level Kansas City Center
Sun 12:19:34 PM 38.3039 -93.5528 72° East 489 563 37,000  Level Kansas City Center
Sun 12:20:35 PM 38.3533 -93.3503 73° East 494 568 37,000  Level Kansas City Center
Sun 12:21:36 PM 38.3942 -93.1819 73° East 495 570 37,000  Level Kansas City Center
Sun 12:22:41 PM 38.4364 -93.0131 72° East 496 571 37,000  Level Kansas City Center
Sun 12:23:42 PM 38.4758 -92.8450 73° East 492 566 37,000  Level Kansas City Center
Sun 12:24:43 PM 38.5158 -92.6772 73° East 491 565 37,000  Level Kansas City Center
Sun 12:25:46 PM 38.5550 -92.5092 73° East 490 564 37,000  Level Kansas City Center
Sun 12:26:45 PM 38.5942 -92.3419 73° East 487 560 37,000  Level Kansas City Center
Sun 12:27:50 PM 38.6322 -92.1758 74° East 486 559 37,000  Level Kansas City Center
Sun 12:28:52 PM 38.6708 -92.0081 74° East 486 559 37,000  Level Kansas City Center
Sun 12:29:52 PM 38.7081 -91.8425 74° East 483 556 37,000  Level Kansas City Center
Sun 12:30:52 PM 38.7522 -91.6519 73° East 481 554 37,000  Level Kansas City Center
Sun 12:31:56 PM 38.7886 -91.4872 74° East 481 554 37,000  Level Kansas City Center
Sun 12:32:57 PM 38.8267 -91.3214 74° East 484 557 37,000  Level Kansas City Center
Sun 12:33:58 PM 38.8633 -91.1539 74° East 487 560 37,000  Level Kansas City Center
Sun 12:35:01 PM 38.9003 -90.9869 74° East 487 560 37,000  Level Kansas City Center
Sun 12:36:03 PM 38.9386 -90.8192 74° East 487 560 37,000  Level Kansas City Center
Sun 12:37:04 PM 38.9747 -90.6489 75° East 489 563 37,000  Level Kansas City Center
Sun 12:38:08 PM 39.0117 -90.4767 75° East 493 567 37,000  Level Kansas City Center
Sun 12:39:08 PM 39.0569 -90.2711 74° East 493 567 37,000  Level Kansas City Center
Sun 12:40:09 PM 39.0936 -90.0997 75° East 493 567 37,000  Level Kansas City Center
Sun 12:41:14 PM 39.1303 -89.9183 75° East 491 565 37,000  Level Kansas City Center
Sun 12:42:14 PM 39.1653 -89.7506 75° East 486 559 37,000  Level Kansas City Center
Sun 12:43:18 PM 39.1972 -89.5931 75° East 487 560 37,000  Level Kansas City Center
Sun 12:44:19 PM 39.2328 -89.4261 75° East 485 558 37,000  Level Kansas City Center
Sun 12:45:20 PM 39.2675 -89.2589 75° East 483 556 37,000  Level Kansas City Center
Sun 12:46:22 PM 39.3081 -89.0550 76° East 488 562 37,000  Level Kansas City Center
Sun 12:47:23 PM 39.3433 -88.8886 75° East 484 557 37,000  Level Kansas City Center
Sun 12:48:26 PM 39.3769 -88.7208 75° East 483 556 37,000  Level Kansas City Center
Sun 12:49:27 PM 39.4086 -88.5511 76° East 484 557 37,000  Level Kansas City Center
Sun 12:50:31 PM 39.4414 -88.3847 76° East 480 552 37,000  Level Kansas City Center
Sun 12:51:32 PM 39.4750 -88.2133 76° East 483 556 37,000  Level Kansas City Center
Sun 12:52:35 PM 39.5083 -88.0406 76° East 488 562 37,000  Level Kansas City Center
Sun 12:53:36 PM 39.5475 -87.8364 76° East 485 558 37,000  Level Kansas City Center
Sun 12:54:37 PM 39.5789 -87.6667 76° East 484 557 37,000  Level Kansas City Center
Sun 12:55:45 PM 39.6092 -87.4983 77° East 486 559 37,000  Level Indianapolis Center
Sun 12:56:47 PM 39.6481 -87.2917 76° East 487 560 37,000  Level Indianapolis Center
Sun 12:57:49 PM 39.6806 -87.1194 76° East 488 562 37,000  Level Indianapolis Center
Sun 12:58:51 PM 39.7111 -86.9458 77° East 489 563 37,000  Level Indianapolis Center
Sun 12:59:53 PM 39.7419 -86.7739 77° East 487 560 37,000  Level Indianapolis Center
Sun 01:00:54 PM 39.7739 -86.6011 76° East 487 560 37,000  Level Indianapolis Center
Sun 01:01:56 PM 39.8042 -86.4289 77° East 487 560 37,000  Level Indianapolis Center
Sun 01:02:58 PM 39.8383 -86.2575 75° East 486 559 37,000  Level Indianapolis Center
Sun 01:04:00 PM 39.8742 -86.0856 75° East 489 563 37,000  Level Indianapolis Center
Sun 01:05:02 PM 39.9153 -85.8986 74° East 490 564 37,000  Level Indianapolis Center
Sun 01:06:04 PM 39.9508 -85.7258 75° East 490 564 37,000  Level Indianapolis Center
Sun 01:07:06 PM 39.9872 -85.5511 75° East 493 567 37,000  Level Indianapolis Center
Sun 01:08:07 PM 40.0233 -85.3764 75° East 495 570 37,000  Level Indianapolis Center
Sun 01:09:09 PM 40.0597 -85.2000 75° East 498 573 37,000  Level Indianapolis Center
Sun 01:10:11 PM 40.1011 -84.9939 75° East 499 574 37,000  Level Indianapolis Center
Sun 01:11:13 PM 40.1361 -84.8150 76° East 502 578 37,000  Level Indianapolis Center
Sun 01:12:15 PM 40.1714 -84.6369 75° East 502 578 37,000  Level Indianapolis Center
Sun 01:13:17 PM 40.2081 -84.4589 75° East 503 579 37,000  Level Indianapolis Center
Sun 01:14:18 PM 40.2425 -84.2803 76° East 500 575 37,000  Level Indianapolis Center
Sun 01:15:20 PM 40.2772 -84.1014 76° East 501 577 37,000  Level Indianapolis Center
Sun 01:16:22 PM 40.3458 -83.9419 61° Northeast 498 573 37,000  Level Indianapolis Center
Sun 01:17:24 PM 40.4322 -83.7942 52° Northeast 501 577 37,000  Level Indianapolis Center
Sun 01:18:26 PM 40.5175 -83.6486 52° Northeast 498 573 37,000  Level Indianapolis Center
Sun 01:19:28 PM 40.6033 -83.5006 53° Northeast 502 578 37,000  Level Indianapolis Center
Sun 01:20:16 PM 40.6750 -83.3756 53° Northeast 500 575 37,000  Level Cleveland Center
Sun 01:21:16 PM 40.7575 -83.2311 53° Northeast 500 575 37,000  Level Cleveland Center
Sun 01:22:16 PM 40.8114 -83.0603 67° East 491 565 37,000  Level Cleveland Center
Sun 01:23:16 PM 40.8553 -82.8672 73° East 491 565 37,000  Level Cleveland Center
Sun 01:24:16 PM 40.8939 -82.6928 74° East 491 565 37,000  Level Cleveland Center
Sun 01:25:16 PM 40.9325 -82.5181 74° East 491 565 37,000  Level Cleveland Center
Sun 01:26:16 PM 40.9728 -82.3406 73° East 491 565 37,000  Level Cleveland Center
Sun 01:27:16 PM 41.0086 -82.1817 73° East 491 565 37,000  Level Cleveland Center
Sun 01:28:16 PM 41.0464 -82.0036 74° East 491 565 37,000  Level Cleveland Center
Sun 01:29:16 PM 41.0839 -81.8256 74° East 496 571 37,000  Level Cleveland Center
Sun 01:30:16 PM 41.1297 -81.6281 73° East 496 571 37,000  Level Cleveland Center
Sun 01:31:16 PM 41.1644 -81.4658 74° East 501 577 37,000  Level Cleveland Center
Sun 01:32:16 PM 41.2033 -81.2675 75° East 501 577 37,000  Level Cleveland Center
Sun 01:33:16 PM 41.2375 -81.1050 74° East 506 582 37,000  Level Cleveland Center
Sun 01:34:16 PM 41.2758 -80.9203 75° East 506 582 37,000  Level Cleveland Center
Sun 01:35:16 PM 41.3136 -80.7381 75° East 504 580 37,000  Level Cleveland Center
Sun 01:36:16 PM 41.3514 -80.5583 74° East 504 580 37,000  Level Cleveland Center
Sun 01:37:16 PM 41.3886 -80.3728 75° East 510 587 37,000  Level Cleveland Center
Sun 01:38:16 PM 41.4256 -80.1900 75° East 510 587 37,000  Level Cleveland Center
Sun 01:39:16 PM 41.4625 -80.0069 75° East 510 587 37,000  Level Cleveland Center
Sun 01:40:16 PM 41.5008 -79.8097 75° East 504 580 37,000  Level Cleveland Center
Sun 01:41:16 PM 41.5369 -79.6261 75° East 504 580 37,000  Level Cleveland Center
Sun 01:42:16 PM 41.5728 -79.4425 75° East 504 580 37,000  Level Cleveland Center
Sun 01:43:16 PM 41.6083 -79.2586 75° East 509 586 37,000  Level Cleveland Center
Sun 01:44:16 PM 41.6436 -79.0717 76° East 509 586 37,000  Level Cleveland Center
Sun 01:45:16 PM 41.6786 -78.8844 76° East 509 586 37,000  Level Cleveland Center
Sun 01:46:16 PM 41.7131 -78.6972 76° East 509 586 37,000  Level Cleveland Center
Sun 01:47:16 PM 41.7475 -78.5097 76° East 509 586 37,000  Level Cleveland Center
Sun 01:48:16 PM 41.7794 -78.3278 77° East 509 586 37,000  Level Cleveland Center
Sun 01:49:41 PM 41.8283 -78.0697 76° East 509 586 37,000  Level New York Center
Sun 01:50:39 PM 41.8544 -77.8803 79° East 509 586 37,000  Level New York Center
Sun 01:51:39 PM 41.8236 -77.6961 103° East 498 573 37,000  Level New York Center
Sun 01:52:40 PM 41.7756 -77.5186 110° East 509 586 37,000  Level New York Center
Sun 01:53:41 PM 41.7289 -77.3442 110° East 509 586 37,000 -496 Level New York Center
Sun 01:54:41 PM 41.6822 -77.1703 110° East 503 579 36,000 -1,000 Descending New York Center
Sun 01:55:41 PM 41.6356 -76.9908 109° East 498 573 35,000 -966 Descending New York Center
Sun 01:56:39 PM 41.5861 -76.8169 111° Southeast 504 580 34,100 -908 Descending New York Center
Sun 01:57:40 PM 41.5442 -76.6608 110° East 504 580 33,200 -793 Descending New York Center
Sun 01:58:40 PM 41.4983 -76.4906 110° East 499 574 32,500 -787 Descending New York Center
Sun 01:59:42 PM 41.4503 -76.3147 110° East 499 574 31,600 -958 Descending New York Center
Sun 02:00:39 PM 41.4019 -76.1450 111° Southeast 499 574 30,600 -1,017 Descending New York Center
Sun 02:01:40 PM 41.3478 -75.9583 111° Southeast 499 574 29,600 -984 Descending New York Center
Sun 02:02:41 PM 41.2967 -75.7858 111° Southeast 494 568 28,600 -1,686 Descending New York Center
Sun 02:03:41 PM 41.2458 -75.6081 111° Southeast 503 579 26,200 -2,100 Descending New York Center
Sun 02:04:41 PM 41.1881 -75.4414 115° Southeast 503 579 24,400 -1,600 Descending New York Center
Sun 02:05:41 PM 41.1339 -75.2778 114° Southeast 491 565 23,000 -700 Descending New York Center
Sun 02:06:41 PM 41.0814 -75.1203 114° Southeast 480 552 23,000  Level New York Center
Sun 02:07:42 PM 41.0286 -74.9711 115° Southeast 461 531 23,000 -508 Level New York Center
Sun 02:08:39 PM 40.9939 -74.8314 108° East 421 484 22,000 -1,008 Descending New York Center
Sun 02:09:41 PM 40.9775 -74.6958 99° East 392 451 21,000 -500 Descending New York Center
Sun 02:10:39 PM 41.0194 -74.5661 67° East 358 412 21,000  Level New York Center
Sun 02:11:41 PM 41.0731 -74.4481 59° Northeast 358 412 21,000 -50 Level New York Center
Sun 02:12:39 PM 41.0878 -74.3086 82° East 368 423 20,900 -756 Descending New York Center
Sun 02:13:40 PM 41.0750 -74.1758 97° East 362 417 19,500 -1,018 Descending New York Center
Sun 02:14:31 PM 41.0000 -74.1333 157° South 332 382 19,000 -270 Descending New York TRACON
Sun 02:15:31 PM 40.9167 -74.1167 171° South 320 368 19,000 -421 Level New York TRACON
Sun 02:16:25 PM 40.8333 -74.1000 171° South 326 375 18,200 -1,316 Descending New York TRACON
Sun 02:17:25 PM 40.7500 -74.0833 171° South 320 368 16,500 -1,550 Descending New York TRACON
Sun 02:18:25 PM 40.6667 -74.0667 171° South 310 357 15,100 -1,429 Descending New York TRACON
Sun 02:19:31 PM 40.5667 -74.0500 173° South 308 354 13,500 -1,050 Descending New York TRACON
Sun 02:20:25 PM 40.5000 -74.0333 169° South 297 342 13,000 -1,053 Descending New York TRACON
Sun 02:21:25 PM 40.4333 -73.9667 143° Southeast 314 361 11,500 -1,450 Descending New York TRACON
Sun 02:22:25 PM 40.3667 -73.8833 136° Southeast 300 345 10,100 -1,378 Descending New York TRACON
Sun 02:23:40 PM 40.3044 -73.7836 129° Southeast 301 346 8,400 -1,350 Descending New York Center
Sun 02:24:25 PM 40.3333 -73.7333 53° Northeast 276 318 7,400 -1,200 Descending New York TRACON
Sun 02:25:25 PM 40.4000 -73.7000 21° North 251 289 6,300 -1,400 Descending New York TRACON
Sun 02:26:25 PM 40.4667 -73.6667 21° North 237 273 4,600 -1,900 Descending New York TRACON
Sun 02:27:25 PM 40.5333 -73.6667 360° North 233 268 2,500 -2,100 Descending New York TRACON

Login

Don't have an account? Register now (free) for customized features, flight alerts, and more!